Snow/Ice From: 16-12-2017 16:00 Until: 17-12-2017 16:00 warning for: Snow/Ice Level: Yellow info button

Although rather usual in this region, locally or potentially dangerous phenomena are expected. (such as local winds, summer thunderstorms, rising streams or high waves) Be aware and pay attention to the latest weather updates, especially if you carry out activities exposed to weather or close to a stream or shoreline. 


Meteo18 Weather Cam more information Meteo18 Weather Cam


Thunder radar more information blitzortung!


warning for Snow/Ice more information rain snow radar


Visit our other weather sites:

Template documentation
and downloads

And another site



Weather Underground History page Text

Daily Summary for May 10, 2017 Units:  Both    English   Metric
« Previous Day
Next Day »
Daily Weekly Monthly Yearly Custom
  High: Low: Average:
Temperature: 73 °F /  22.8 °C 39.6 °F /  4.2 °C 57.6 °F /  14.2 °C
Dew Point: 54.3 °F /  12.4 °C 36.5 °F /  2.5 °C 45.9 °F /  7.7 °C
Humidity: 90 % 42 % 68 %
Wind Speed: 8 mph /  12.9 km/h - 2.1 mph /  3.3 km/h
Wind Gust: 12 mph /  19.3 km/h - -
Wind:- - ESE
Pressure: 29.9 in /  1012.1 hPa 29.6 in /  1001.9 hPa -
Precipitation: 0 in /  0.0 mm    
Historical Graphs
 
 
Tabular Data for May 10, 2017
Time Temperature Dew Point Pressure Wind Wind Speed Wind Gust Humidity Rainfall Rate (Hourly)
00:02 49.1 °F /  9.5 °C 41.9 °F /  5.5 °C 29.9 in /  1012.1 hPa NNE 7 mph /  11.3 km/h 10 mph /  16.1 km/h 76 % 0 in /  0.0 mm
00:07 48.9 °F /  9.4 °C 41.7 °F /  5.4 °C 29.9 in /  1011.7 hPa NE 4 mph /  6.4 km/h 8 mph /  12.9 km/h 76 % 0 in /  0.0 mm
00:12 48.7 °F /  9.3 °C 41.5 °F /  5.3 °C 29.9 in /  1012.1 hPa NE 3 mph /  4.8 km/h 8 mph /  12.9 km/h 76 % 0 in /  0.0 mm
00:17 48.6 °F /  9.2 °C 41.7 °F /  5.4 °C 29.9 in /  1011.7 hPa NE 4 mph /  6.4 km/h 8 mph /  12.9 km/h 77 % 0 in /  0.0 mm
00:22 48.4 °F /  9.1 °C 41.9 °F /  5.5 °C 29.9 in /  1012.1 hPa NE 2 mph /  3.2 km/h 8 mph /  12.9 km/h 78 % 0 in /  0.0 mm
00:27 48 °F /  8.9 °C 41.5 °F /  5.3 °C 29.9 in /  1012.1 hPa NE 3 mph /  4.8 km/h 8 mph /  12.9 km/h 78 % 0 in /  0.0 mm
00:32 48 °F /  8.9 °C 41.5 °F /  5.3 °C 29.9 in /  1011.7 hPa NE 4 mph /  6.4 km/h 8 mph /  12.9 km/h 78 % 0 in /  0.0 mm
00:37 47.7 °F /  8.7 °C 41.5 °F /  5.3 °C 29.9 in /  1011.7 hPa NE 3 mph /  4.8 km/h 11 mph /  17.7 km/h 79 % 0 in /  0.0 mm
00:42 47.5 °F /  8.6 °C 41.4 °F /  5.2 °C 29.9 in /  1011.7 hPa ENE 4 mph /  6.4 km/h 11 mph /  17.7 km/h 79 % 0 in /  0.0 mm
00:47 47.5 °F /  8.6 °C 41.5 °F /  5.3 °C 29.9 in /  1011.7 hPa NE 5 mph /  8.0 km/h 11 mph /  17.7 km/h 80 % 0 in /  0.0 mm
00:52 47.3 °F /  8.5 °C 41.4 °F /  5.2 °C 29.9 in /  1011.7 hPa NNE 8 mph /  12.9 km/h 10 mph /  16.1 km/h 80 % 0 in /  0.0 mm
00:57 47.3 °F /  8.5 °C 41.4 °F /  5.2 °C 29.9 in /  1011.7 hPa NE 6 mph /  9.7 km/h 11 mph /  17.7 km/h 80 % 0 in /  0.0 mm
01:02 47.3 °F /  8.5 °C 41.4 °F /  5.2 °C 29.9 in /  1011.7 hPa NE 6 mph /  9.7 km/h 11 mph /  17.7 km/h 80 % 0 in /  0.0 mm
01:07 47.1 °F /  8.4 °C 41.4 °F /  5.2 °C 29.9 in /  1011.7 hPa NNE 8 mph /  12.9 km/h 10 mph /  16.1 km/h 80 % 0 in /  0.0 mm
01:12 47.1 °F /  8.4 °C 41.4 °F /  5.2 °C 29.9 in /  1011.7 hPa NNE 7 mph /  11.3 km/h 10 mph /  16.1 km/h 80 % 0 in /  0.0 mm
01:17 47.1 °F /  8.4 °C 41.4 °F /  5.2 °C 29.9 in /  1011.7 hPa NE 5 mph /  8.0 km/h 10 mph /  16.1 km/h 80 % 0 in /  0.0 mm
01:22 46.9 °F /  8.3 °C 41.2 °F /  5.1 °C 29.9 in /  1011.4 hPa NE 2 mph /  3.2 km/h 9 mph /  14.5 km/h 80 % 0 in /  0.0 mm
01:27 46.9 °F /  8.3 °C 41.4 °F /  5.2 °C 29.9 in /  1011.4 hPa NNE 5 mph /  8.0 km/h 9 mph /  14.5 km/h 81 % 0 in /  0.0 mm
01:32 46.9 °F /  8.3 °C 41.4 °F /  5.2 °C 29.9 in /  1011.4 hPa NNE 7 mph /  11.3 km/h 9 mph /  14.5 km/h 81 % 0 in /  0.0 mm
01:37 46.8 °F /  8.2 °C 41.2 °F /  5.1 °C 29.9 in /  1011.4 hPa ENE 5 mph /  8.0 km/h 9 mph /  14.5 km/h 81 % 0 in /  0.0 mm
01:42 46.6 °F /  8.1 °C 41 °F /  5.0 °C 29.9 in /  1011.4 hPa NE 5 mph /  8.0 km/h 10 mph /  16.1 km/h 81 % 0 in /  0.0 mm
01:47 46.6 °F /  8.1 °C 41 °F /  5.0 °C 29.9 in /  1011.4 hPa NNE 5 mph /  8.0 km/h 10 mph /  16.1 km/h 81 % 0 in /  0.0 mm
01:52 46.4 °F /  8.0 °C 41.2 °F /  5.1 °C 29.9 in /  1011.4 hPa NE 8 mph /  12.9 km/h 8 mph /  12.9 km/h 82 % 0 in /  0.0 mm
01:57 46.2 °F /  7.9 °C 41 °F /  5.0 °C 29.9 in /  1011.1 hPa NE 4 mph /  6.4 km/h 9 mph /  14.5 km/h 82 % 0 in /  0.0 mm
02:02 46 °F /  7.8 °C 40.8 °F /  4.9 °C 29.9 in /  1011.1 hPa NNE 3 mph /  4.8 km/h 9 mph /  14.5 km/h 82 % 0 in /  0.0 mm
02:12 45.9 °F /  7.7 °C 40.6 °F /  4.8 °C 29.9 in /  1011.1 hPa ENE 3 mph /  4.8 km/h 7 mph /  11.3 km/h 82 % 0 in /  0.0 mm
02:17 45.9 °F /  7.7 °C 40.6 °F /  4.8 °C 29.9 in /  1011.1 hPa NE 3 mph /  4.8 km/h 7 mph /  11.3 km/h 82 % 0 in /  0.0 mm
02:22 45.7 °F /  7.6 °C 40.5 °F /  4.7 °C 29.8 in /  1010.7 hPa NNE 4 mph /  6.4 km/h 7 mph /  11.3 km/h 82 % 0 in /  0.0 mm
02:27 45.7 °F /  7.6 °C 40.5 °F /  4.7 °C 29.8 in /  1010.7 hPa NE 5 mph /  8.0 km/h 6 mph /  9.7 km/h 82 % 0 in /  0.0 mm
02:32 46 °F /  7.8 °C 40.5 °F /  4.7 °C 29.8 in /  1010.7 hPa NNE 2 mph /  3.2 km/h 8 mph /  12.9 km/h 81 % 0 in /  0.0 mm
02:42 46 °F /  7.8 °C 40.3 °F /  4.6 °C 29.8 in /  1010.7 hPa ENE 4 mph /  6.4 km/h 8 mph /  12.9 km/h 80 % 0 in /  0.0 mm
02:47 46 °F /  7.8 °C 40.3 °F /  4.6 °C 29.8 in /  1010.4 hPa NNE 5 mph /  8.0 km/h 7 mph /  11.3 km/h 80 % 0 in /  0.0 mm
02:57 46 °F /  7.8 °C 40.3 °F /  4.6 °C 29.8 in /  1010.4 hPa NE 4 mph /  6.4 km/h 7 mph /  11.3 km/h 80 % 0 in /  0.0 mm
03:02 46 °F /  7.8 °C 39.9 °F /  4.4 °C 29.8 in /  1010.4 hPa NE 4 mph /  6.4 km/h 7 mph /  11.3 km/h 79 % 0 in /  0.0 mm
03:07 46 °F /  7.8 °C 39.9 °F /  4.4 °C 29.8 in /  1010.4 hPa NE 3 mph /  4.8 km/h 7 mph /  11.3 km/h 79 % 0 in /  0.0 mm
03:12 45.9 °F /  7.7 °C 39.7 °F /  4.3 °C 29.8 in /  1010.4 hPa NE 2 mph /  3.2 km/h 6 mph /  9.7 km/h 79 % 0 in /  0.0 mm
03:17 45.7 °F /  7.6 °C 39.6 °F /  4.2 °C 29.8 in /  1010.4 hPa ENE 2 mph /  3.2 km/h 6 mph /  9.7 km/h 79 % 0 in /  0.0 mm
03:22 45.7 °F /  7.6 °C 39.9 °F /  4.4 °C 29.8 in /  1010.4 hPa NE 2 mph /  3.2 km/h 6 mph /  9.7 km/h 80 % 0 in /  0.0 mm
03:27 45.3 °F /  7.4 °C 39.6 °F /  4.2 °C 29.8 in /  1010.0 hPa NNE 2 mph /  3.2 km/h 4 mph /  6.4 km/h 80 % 0 in /  0.0 mm
03:32 45.1 °F /  7.3 °C 39.4 °F /  4.1 °C 29.8 in /  1010.0 hPa NE 2 mph /  3.2 km/h 4 mph /  6.4 km/h 80 % 0 in /  0.0 mm
03:37 44.8 °F /  7.1 °C 39.4 °F /  4.1 °C 29.8 in /  1010.0 hPa Calm   3 mph /  4.8 km/h 81 % 0 in /  0.0 mm
03:42 44.2 °F /  6.8 °C 39 °F /  3.9 °C 29.8 in /  1010.0 hPa North 1 mph /  1.6 km/h 3 mph /  4.8 km/h 82 % 0 in /  0.0 mm
03:47 44.1 °F /  6.7 °C 38.8 °F /  3.8 °C 29.8 in /  1010.0 hPa Calm   2 mph /  3.2 km/h 82 % 0 in /  0.0 mm
03:52 43.9 °F /  6.6 °C 38.7 °F /  3.7 °C 29.8 in /  1010.0 hPa Calm   3 mph /  4.8 km/h 82 % 0 in /  0.0 mm
03:57 43.9 °F /  6.6 °C 39 °F /  3.9 °C 29.8 in /  1010.0 hPa Calm   3 mph /  4.8 km/h 83 % 0 in /  0.0 mm
04:02 43.7 °F /  6.5 °C 38.8 °F /  3.8 °C 29.8 in /  1010.0 hPa NNW 1 mph /  1.6 km/h 3 mph /  4.8 km/h 83 % 0 in /  0.0 mm
04:07 43.5 °F /  6.4 °C 38.7 °F /  3.7 °C 29.8 in /  1010.0 hPa Calm   3 mph /  4.8 km/h 83 % 0 in /  0.0 mm
04:12 43.2 °F /  6.2 °C 38.3 °F /  3.5 °C 29.8 in /  1010.0 hPa Calm   2 mph /  3.2 km/h 83 % 0 in /  0.0 mm
04:17 43 °F /  6.1 °C 38.5 °F /  3.6 °C 29.8 in /  1009.7 hPa Calm   2 mph /  3.2 km/h 84 % 0 in /  0.0 mm
04:22 42.8 °F /  6.0 °C 38.3 °F /  3.5 °C 29.8 in /  1009.7 hPa North 3 mph /  4.8 km/h 3 mph /  4.8 km/h 84 % 0 in /  0.0 mm
04:27 42.6 °F /  5.9 °C 38.1 °F /  3.4 °C 29.8 in /  1009.7 hPa North 1 mph /  1.6 km/h 4 mph /  6.4 km/h 84 % 0 in /  0.0 mm
04:32 42.4 °F /  5.8 °C 38.3 °F /  3.5 °C 29.8 in /  1009.7 hPa NE 2 mph /  3.2 km/h 4 mph /  6.4 km/h 85 % 0 in /  0.0 mm
04:37 42.4 °F /  5.8 °C 38.3 °F /  3.5 °C 29.8 in /  1009.4 hPa Calm   3 mph /  4.8 km/h 85 % 0 in /  0.0 mm
04:42 42.3 °F /  5.7 °C 38.1 °F /  3.4 °C 29.8 in /  1009.7 hPa Calm   3 mph /  4.8 km/h 85 % 0 in /  0.0 mm
04:47 41.9 °F /  5.5 °C 37.4 °F /  3.0 °C 29.8 in /  1009.4 hPa Calm   3 mph /  4.8 km/h 84 % 0 in /  0.0 mm
04:52 41.4 °F /  5.2 °C 37.2 °F /  2.9 °C 29.8 in /  1009.4 hPa Calm   3 mph /  4.8 km/h 85 % 0 in /  0.0 mm
04:57 41.2 °F /  5.1 °C 37.4 °F /  3.0 °C 29.8 in /  1009.4 hPa NW 1 mph /  1.6 km/h 1 mph /  1.6 km/h 86 % 0 in /  0.0 mm
05:02 40.8 °F /  4.9 °C 37.2 °F /  2.9 °C 29.8 in /  1009.4 hPa NW 1 mph /  1.6 km/h 1 mph /  1.6 km/h 87 % 0 in /  0.0 mm
05:12 40.6 °F /  4.8 °C 36.9 °F /  2.7 °C 29.8 in /  1009.4 hPa NW 1 mph /  1.6 km/h 1 mph /  1.6 km/h 86 % 0 in /  0.0 mm
05:17 40.3 °F /  4.6 °C 37.2 °F /  2.9 °C 29.8 in /  1009.0 hPa NW 1 mph /  1.6 km/h 2 mph /  3.2 km/h 89 % 0 in /  0.0 mm
05:27 40.6 °F /  4.8 °C 37.4 °F /  3.0 °C 29.8 in /  1008.7 hPa Calm   2 mph /  3.2 km/h 88 % 0 in /  0.0 mm
05:32 40.5 °F /  4.7 °C 37.2 °F /  2.9 °C 29.8 in /  1008.7 hPa North 1 mph /  1.6 km/h 2 mph /  3.2 km/h 88 % 0 in /  0.0 mm
05:37 40.5 °F /  4.7 °C 37.2 °F /  2.9 °C 29.8 in /  1008.7 hPa Calm   3 mph /  4.8 km/h 88 % 0 in /  0.0 mm
05:42 39.9 °F /  4.4 °C 36.7 °F /  2.6 °C 29.8 in /  1008.7 hPa Calm   3 mph /  4.8 km/h 88 % 0 in /  0.0 mm
05:47 39.6 °F /  4.2 °C 36.5 °F /  2.5 °C 29.8 in /  1008.7 hPa Calm   3 mph /  4.8 km/h 89 % 0 in /  0.0 mm
05:52 39.7 °F /  4.3 °C 37 °F /  2.8 °C 29.8 in /  1008.7 hPa NW 1 mph /  1.6 km/h 3 mph /  4.8 km/h 90 % 0 in /  0.0 mm
05:57 40.3 °F /  4.6 °C 37.2 °F /  2.9 °C 29.8 in /  1008.7 hPa NW 1 mph /  1.6 km/h 2 mph /  3.2 km/h 89 % 0 in /  0.0 mm
06:02 40.5 °F /  4.7 °C 37.2 °F /  2.9 °C 29.8 in /  1008.7 hPa Calm   2 mph /  3.2 km/h 88 % 0 in /  0.0 mm
06:12 39.9 °F /  4.4 °C 36.9 °F /  2.7 °C 29.8 in /  1008.4 hPa NW 1 mph /  1.6 km/h 2 mph /  3.2 km/h 89 % 0 in /  0.0 mm
06:17 39.9 °F /  4.4 °C 36.9 °F /  2.7 °C 29.8 in /  1008.4 hPa Calm   1 mph /  1.6 km/h 89 % 0 in /  0.0 mm
06:22 40.3 °F /  4.6 °C 37.2 °F /  2.9 °C 29.8 in /  1008.4 hPa Calm   1 mph /  1.6 km/h 89 % 0 in /  0.0 mm
06:32 40.3 °F /  4.6 °C 37.2 °F /  2.9 °C 29.8 in /  1008.4 hPa Calm   1 mph /  1.6 km/h 89 % 0 in /  0.0 mm
06:42 40.6 °F /  4.8 °C 37.6 °F /  3.1 °C 29.8 in /  1008.4 hPa Calm   1 mph /  1.6 km/h 89 % 0 in /  0.0 mm
06:52 41.2 °F /  5.1 °C 37.9 °F /  3.3 °C 29.8 in /  1008.4 hPa Calm   1 mph /  1.6 km/h 88 % 0 in /  0.0 mm
07:02 41.7 °F /  5.4 °C 38.1 °F /  3.4 °C 29.8 in /  1008.4 hPa NNE 1 mph /  1.6 km/h 1 mph /  1.6 km/h 87 % 0 in /  0.0 mm
07:07 42.3 °F /  5.7 °C 38.7 °F /  3.7 °C 29.8 in /  1008.0 hPa Calm   2 mph /  3.2 km/h 87 % 0 in /  0.0 mm
07:12 42.6 °F /  5.9 °C 38.5 °F /  3.6 °C 29.8 in /  1008.0 hPa Calm   2 mph /  3.2 km/h 85 % 0 in /  0.0 mm
07:17 42.6 °F /  5.9 °C 38.5 °F /  3.6 °C 29.8 in /  1008.0 hPa Calm   1 mph /  1.6 km/h 85 % 0 in /  0.0 mm
07:22 42.4 °F /  5.8 °C 38.3 °F /  3.5 °C 29.8 in /  1008.0 hPa Calm   1 mph /  1.6 km/h 85 % 0 in /  0.0 mm
07:32 43.3 °F /  6.3 °C 39.4 °F /  4.1 °C 29.8 in /  1008.0 hPa Calm   2 mph /  3.2 km/h 86 % 0 in /  0.0 mm
07:37 43.7 °F /  6.5 °C 39.2 °F /  4.0 °C 29.8 in /  1008.0 hPa NE 2 mph /  3.2 km/h 2 mph /  3.2 km/h 84 % 0 in /  0.0 mm
07:42 43.9 °F /  6.6 °C 39.4 °F /  4.1 °C 29.8 in /  1008.0 hPa NNE 3 mph /  4.8 km/h 3 mph /  4.8 km/h 84 % 0 in /  0.0 mm
07:47 43.9 °F /  6.6 °C 39.4 °F /  4.1 °C 29.8 in /  1008.0 hPa East 2 mph /  3.2 km/h 5 mph /  8.0 km/h 84 % 0 in /  0.0 mm
07:52 44.4 °F /  6.9 °C 39.9 °F /  4.4 °C 29.8 in /  1008.0 hPa NE 3 mph /  4.8 km/h 5 mph /  8.0 km/h 84 % 0 in /  0.0 mm
07:57 45 °F /  7.2 °C 40.1 °F /  4.5 °C 29.8 in /  1008.0 hPa NE 2 mph /  3.2 km/h 6 mph /  9.7 km/h 83 % 0 in /  0.0 mm
08:02 45.3 °F /  7.4 °C 40.1 °F /  4.5 °C 29.8 in /  1008.0 hPa East 1 mph /  1.6 km/h 6 mph /  9.7 km/h 82 % 0 in /  0.0 mm
08:07 45.9 °F /  7.7 °C 40.3 °F /  4.6 °C 29.8 in /  1008.0 hPa Calm   5 mph /  8.0 km/h 81 % 0 in /  0.0 mm
08:12 46 °F /  7.8 °C 39.9 °F /  4.4 °C 29.8 in /  1008.0 hPa East 1 mph /  1.6 km/h 5 mph /  8.0 km/h 79 % 0 in /  0.0 mm
08:17 46.4 °F /  8.0 °C 40.6 °F /  4.8 °C 29.8 in /  1008.0 hPa ENE 3 mph /  4.8 km/h 3 mph /  4.8 km/h 80 % 0 in /  0.0 mm
08:22 46.8 °F /  8.2 °C 41.2 °F /  5.1 °C 29.8 in /  1007.7 hPa Calm   3 mph /  4.8 km/h 81 % 0 in /  0.0 mm
08:27 46.9 °F /  8.3 °C 41.2 °F /  5.1 °C 29.8 in /  1007.7 hPa NNE 2 mph /  3.2 km/h 3 mph /  4.8 km/h 80 % 0 in /  0.0 mm
08:32 47.1 °F /  8.4 °C 41.4 °F /  5.2 °C 29.8 in /  1007.7 hPa NE 2 mph /  3.2 km/h 3 mph /  4.8 km/h 80 % 0 in /  0.0 mm
08:37 47.1 °F /  8.4 °C 41.5 °F /  5.3 °C 29.8 in /  1007.7 hPa ENE 2 mph /  3.2 km/h 5 mph /  8.0 km/h 81 % 0 in /  0.0 mm
08:42 47.7 °F /  8.7 °C 41.7 °F /  5.4 °C 29.8 in /  1007.7 hPa NE 3 mph /  4.8 km/h 5 mph /  8.0 km/h 80 % 0 in /  0.0 mm
08:52 48.2 °F /  9.0 °C 42.6 °F /  5.9 °C 29.7 in /  1007.3 hPa Calm   6 mph /  9.7 km/h 81 % 0 in /  0.0 mm
08:57 48.7 °F /  9.3 °C 42.4 °F /  5.8 °C 29.7 in /  1007.3 hPa NE 2 mph /  3.2 km/h 5 mph /  8.0 km/h 79 % 0 in /  0.0 mm
09:02 49.5 °F /  9.7 °C 42.8 °F /  6.0 °C 29.7 in /  1007.3 hPa NE 2 mph /  3.2 km/h 5 mph /  8.0 km/h 78 % 0 in /  0.0 mm
09:12 50.4 °F /  10.2 °C 42.8 °F /  6.0 °C 29.7 in /  1007.3 hPa East 2 mph /  3.2 km/h 4 mph /  6.4 km/h 75 % 0 in /  0.0 mm
09:17 50.5 °F /  10.3 °C 43.3 °F /  6.3 °C 29.7 in /  1007.3 hPa NE 3 mph /  4.8 km/h 5 mph /  8.0 km/h 76 % 0 in /  0.0 mm
09:22 51.4 °F /  10.8 °C 43.7 °F /  6.5 °C 29.7 in /  1007.3 hPa East 2 mph /  3.2 km/h 5 mph /  8.0 km/h 75 % 0 in /  0.0 mm
09:27 52.2 °F /  11.2 °C 44.1 °F /  6.7 °C 29.7 in /  1007.3 hPa ENE 3 mph /  4.8 km/h 5 mph /  8.0 km/h 74 % 0 in /  0.0 mm
09:32 52.9 °F /  11.6 °C 43.7 °F /  6.5 °C 29.7 in /  1007.3 hPa ESE 5 mph /  8.0 km/h 5 mph /  8.0 km/h 71 % 0 in /  0.0 mm
09:42 52.7 °F /  11.5 °C 42.8 °F /  6.0 °C 29.7 in /  1007.3 hPa Calm   9 mph /  14.5 km/h 69 % 0 in /  0.0 mm
09:47 53.1 °F /  11.7 °C 43.2 °F /  6.2 °C 29.7 in /  1007.3 hPa East 3 mph /  4.8 km/h 9 mph /  14.5 km/h 69 % 0 in /  0.0 mm
09:52 53.1 °F /  11.7 °C 43.5 °F /  6.4 °C 29.7 in /  1007.3 hPa East 3 mph /  4.8 km/h 9 mph /  14.5 km/h 70 % 0 in /  0.0 mm
09:57 53.4 °F /  11.9 °C 43.5 °F /  6.4 °C 29.7 in /  1007.3 hPa East 1 mph /  1.6 km/h 8 mph /  12.9 km/h 69 % 0 in /  0.0 mm
10:02 54 °F /  12.2 °C 44.1 °F /  6.7 °C 29.7 in /  1007.3 hPa East 3 mph /  4.8 km/h 8 mph /  12.9 km/h 69 % 0 in /  0.0 mm
10:12 54.9 °F /  12.7 °C 44.1 °F /  6.7 °C 29.7 in /  1007.0 hPa NE 3 mph /  4.8 km/h 9 mph /  14.5 km/h 67 % 0 in /  0.0 mm
10:17 55.6 °F /  13.1 °C 45.1 °F /  7.3 °C 29.7 in /  1007.0 hPa East 2 mph /  3.2 km/h 9 mph /  14.5 km/h 68 % 0 in /  0.0 mm
10:22 55.8 °F /  13.2 °C 45 °F /  7.2 °C 29.7 in /  1007.0 hPa SSE 2 mph /  3.2 km/h 9 mph /  14.5 km/h 67 % 0 in /  0.0 mm
10:32 55.9 °F /  13.3 °C 45.5 °F /  7.5 °C 29.7 in /  1006.7 hPa East 5 mph /  8.0 km/h 7 mph /  11.3 km/h 68 % 0 in /  0.0 mm
10:37 56.7 °F /  13.7 °C 46.6 °F /  8.1 °C 29.7 in /  1006.7 hPa ENE 2 mph /  3.2 km/h 7 mph /  11.3 km/h 69 % 0 in /  0.0 mm
10:42 57.6 °F /  14.2 °C 47.5 °F /  8.6 °C 29.7 in /  1006.7 hPa SE 2 mph /  3.2 km/h 7 mph /  11.3 km/h 69 % 0 in /  0.0 mm
10:47 58.3 °F /  14.6 °C 46.2 °F /  7.9 °C 29.7 in /  1006.7 hPa ESE 4 mph /  6.4 km/h 9 mph /  14.5 km/h 64 % 0 in /  0.0 mm
10:52 58.3 °F /  14.6 °C 45.7 °F /  7.6 °C 29.7 in /  1006.7 hPa ESE 1 mph /  1.6 km/h 9 mph /  14.5 km/h 63 % 0 in /  0.0 mm
10:57 58.5 °F /  14.7 °C 46.8 °F /  8.2 °C 29.7 in /  1006.7 hPa SE 3 mph /  4.8 km/h 5 mph /  8.0 km/h 65 % 0 in /  0.0 mm
11:02 58.6 °F /  14.8 °C 45.7 °F /  7.6 °C 29.7 in /  1006.7 hPa East 4 mph /  6.4 km/h 5 mph /  8.0 km/h 62 % 0 in /  0.0 mm
11:07 58.8 °F /  14.9 °C 46.6 °F /  8.1 °C 29.7 in /  1006.3 hPa ENE 4 mph /  6.4 km/h 10 mph /  16.1 km/h 64 % 0 in /  0.0 mm
11:12 59.2 °F /  15.1 °C 45.7 °F /  7.6 °C 29.7 in /  1006.7 hPa East 7 mph /  11.3 km/h 10 mph /  16.1 km/h 61 % 0 in /  0.0 mm
11:17 59.7 °F /  15.4 °C 46.2 °F /  7.9 °C 29.7 in /  1006.3 hPa East 4 mph /  6.4 km/h 10 mph /  16.1 km/h 61 % 0 in /  0.0 mm
11:22 60.4 °F /  15.8 °C 47.8 °F /  8.8 °C 29.7 in /  1006.7 hPa ENE 2 mph /  3.2 km/h 10 mph /  16.1 km/h 63 % 0 in /  0.0 mm
11:32 61.5 °F /  16.4 °C 47.1 °F /  8.4 °C 29.7 in /  1006.7 hPa SE 4 mph /  6.4 km/h 9 mph /  14.5 km/h 59 % 0 in /  0.0 mm
11:37 61.7 °F /  16.5 °C 46.8 °F /  8.2 °C 29.7 in /  1006.3 hPa East 5 mph /  8.0 km/h 6 mph /  9.7 km/h 58 % 0 in /  0.0 mm
11:42 61.5 °F /  16.4 °C 46.6 °F /  8.1 °C 29.7 in /  1006.3 hPa ESE 4 mph /  6.4 km/h 7 mph /  11.3 km/h 58 % 0 in /  0.0 mm
11:47 62.2 °F /  16.8 °C 47.3 °F /  8.5 °C 29.7 in /  1006.3 hPa SE 6 mph /  9.7 km/h 8 mph /  12.9 km/h 58 % 0 in /  0.0 mm
11:52 62.8 °F /  17.1 °C 47.3 °F /  8.5 °C 29.7 in /  1006.3 hPa East 3 mph /  4.8 km/h 9 mph /  14.5 km/h 57 % 0 in /  0.0 mm
11:57 62.8 °F /  17.1 °C 48.2 °F /  9.0 °C 29.7 in /  1006.3 hPa SE 1 mph /  1.6 km/h 9 mph /  14.5 km/h 59 % 0 in /  0.0 mm
12:02 63 °F /  17.2 °C 46.9 °F /  8.3 °C 29.7 in /  1006.3 hPa ESE 4 mph /  6.4 km/h 9 mph /  14.5 km/h 56 % 0 in /  0.0 mm
12:07 63.3 °F /  17.4 °C 48.7 °F /  9.3 °C 29.7 in /  1006.3 hPa ESE 1 mph /  1.6 km/h 7 mph /  11.3 km/h 59 % 0 in /  0.0 mm
12:12 63.3 °F /  17.4 °C 45.9 °F /  7.7 °C 29.7 in /  1006.0 hPa Calm   7 mph /  11.3 km/h 53 % 0 in /  0.0 mm
12:17 63.3 °F /  17.4 °C 46.9 °F /  8.3 °C 29.7 in /  1006.0 hPa NE 2 mph /  3.2 km/h 8 mph /  12.9 km/h 55 % 0 in /  0.0 mm
12:22 63.9 °F /  17.7 °C 47.3 °F /  8.5 °C 29.7 in /  1006.0 hPa ESE 5 mph /  8.0 km/h 8 mph /  12.9 km/h 55 % 0 in /  0.0 mm
12:32 63.9 °F /  17.7 °C 48.4 °F /  9.1 °C 29.7 in /  1006.0 hPa East 5 mph /  8.0 km/h 7 mph /  11.3 km/h 57 % 0 in /  0.0 mm
12:42 64.4 °F /  18.0 °C 46.9 °F /  8.3 °C 29.7 in /  1006.0 hPa SE 1 mph /  1.6 km/h 8 mph /  12.9 km/h 53 % 0 in /  0.0 mm
12:47 64.9 °F /  18.3 °C 47.8 °F /  8.8 °C 29.7 in /  1005.6 hPa NE 1 mph /  1.6 km/h 8 mph /  12.9 km/h 54 % 0 in /  0.0 mm
12:52 65.1 °F /  18.4 °C 49.1 °F /  9.5 °C 29.7 in /  1005.6 hPa SE 4 mph /  6.4 km/h 8 mph /  12.9 km/h 56 % 0 in /  0.0 mm
12:57 65.3 °F /  18.5 °C 48.7 °F /  9.3 °C 29.7 in /  1005.6 hPa SSE 4 mph /  6.4 km/h 7 mph /  11.3 km/h 55 % 0 in /  0.0 mm
13:02 65.8 °F /  18.8 °C 50.2 °F /  10.1 °C 29.7 in /  1005.6 hPa East 2 mph /  3.2 km/h 8 mph /  12.9 km/h 57 % 0 in /  0.0 mm
13:07 65.7 °F /  18.7 °C 49.1 °F /  9.5 °C 29.7 in /  1005.6 hPa East 2 mph /  3.2 km/h 8 mph /  12.9 km/h 55 % 0 in /  0.0 mm
13:12 66.7 °F /  19.3 °C 50.5 °F /  10.3 °C 29.7 in /  1005.6 hPa ESE 1 mph /  1.6 km/h 8 mph /  12.9 km/h 56 % 0 in /  0.0 mm
13:17 66.6 °F /  19.2 °C 48.9 °F /  9.4 °C 29.7 in /  1005.6 hPa SE 1 mph /  1.6 km/h 8 mph /  12.9 km/h 53 % 0 in /  0.0 mm
13:22 66 °F /  18.9 °C 49.5 °F /  9.7 °C 29.7 in /  1005.3 hPa ESE 2 mph /  3.2 km/h 10 mph /  16.1 km/h 55 % 0 in /  0.0 mm
13:27 66.7 °F /  19.3 °C 48.6 °F /  9.2 °C 29.7 in /  1005.3 hPa SE 3 mph /  4.8 km/h 10 mph /  16.1 km/h 52 % 0 in /  0.0 mm
13:32 66.7 °F /  19.3 °C 48.6 °F /  9.2 °C 29.7 in /  1005.3 hPa ESE 3 mph /  4.8 km/h 10 mph /  16.1 km/h 52 % 0 in /  0.0 mm
13:37 66.9 °F /  19.4 °C 48.2 °F /  9.0 °C 29.7 in /  1005.3 hPa ENE 2 mph /  3.2 km/h 8 mph /  12.9 km/h 51 % 0 in /  0.0 mm
13:42 67.1 °F /  19.5 °C 48.9 °F /  9.4 °C 29.7 in /  1005.0 hPa ENE 4 mph /  6.4 km/h 8 mph /  12.9 km/h 52 % 0 in /  0.0 mm
13:47 67.6 °F /  19.8 °C 50.4 °F /  10.2 °C 29.7 in /  1005.3 hPa East 1 mph /  1.6 km/h 7 mph /  11.3 km/h 54 % 0 in /  0.0 mm
13:52 68.4 °F /  20.2 °C 49.5 °F /  9.7 °C 29.7 in /  1005.0 hPa Calm   7 mph /  11.3 km/h 51 % 0 in /  0.0 mm
13:57 68 °F /  20.0 °C 48.7 °F /  9.3 °C 29.7 in /  1005.0 hPa SSE 5 mph /  8.0 km/h 6 mph /  9.7 km/h 50 % 0 in /  0.0 mm
14:02 67.8 °F /  19.9 °C 49.1 °F /  9.5 °C 29.7 in /  1005.0 hPa ENE 6 mph /  9.7 km/h 6 mph /  9.7 km/h 51 % 0 in /  0.0 mm
14:12 68.7 °F /  20.4 °C 47.7 °F /  8.7 °C 29.7 in /  1005.0 hPa SSE 2 mph /  3.2 km/h 7 mph /  11.3 km/h 47 % 0 in /  0.0 mm
14:17 69.3 °F /  20.7 °C 49.8 °F /  9.9 °C 29.7 in /  1005.0 hPa SE 4 mph /  6.4 km/h 7 mph /  11.3 km/h 50 % 0 in /  0.0 mm
14:22 69.3 °F /  20.7 °C 48.2 °F /  9.0 °C 29.7 in /  1005.0 hPa WSW 2 mph /  3.2 km/h 8 mph /  12.9 km/h 47 % 0 in /  0.0 mm
14:27 69.6 °F /  20.9 °C 51.3 °F /  10.7 °C 29.7 in /  1005.0 hPa Calm   8 mph /  12.9 km/h 52 % 0 in /  0.0 mm
14:32 70.2 °F /  21.2 °C 47.3 °F /  8.5 °C 29.7 in /  1005.0 hPa Calm   8 mph /  12.9 km/h 44 % 0 in /  0.0 mm
14:42 70.3 °F /  21.3 °C 49.6 °F /  9.8 °C 29.7 in /  1004.6 hPa SSE 7 mph /  11.3 km/h 11 mph /  17.7 km/h 48 % 0 in /  0.0 mm
14:47 70.2 °F /  21.2 °C 50.2 °F /  10.1 °C 29.7 in /  1004.6 hPa SSW 3 mph /  4.8 km/h 11 mph /  17.7 km/h 49 % 0 in /  0.0 mm
14:52 69.8 °F /  21.0 °C 49.3 °F /  9.6 °C 29.7 in /  1004.6 hPa South 5 mph /  8.0 km/h 11 mph /  17.7 km/h 48 % 0 in /  0.0 mm
14:57 69.6 °F /  20.9 °C 47.3 °F /  8.5 °C 29.7 in /  1004.6 hPa South 4 mph /  6.4 km/h 11 mph /  17.7 km/h 45 % 0 in /  0.0 mm
15:02 69.4 °F /  20.8 °C 48.4 °F /  9.1 °C 29.7 in /  1004.6 hPa SSE 4 mph /  6.4 km/h 11 mph /  17.7 km/h 47 % 0 in /  0.0 mm
15:07 69.3 °F /  20.7 °C 48.7 °F /  9.3 °C 29.7 in /  1004.3 hPa ESE 4 mph /  6.4 km/h 11 mph /  17.7 km/h 48 % 0 in /  0.0 mm
15:12 69.4 °F /  20.8 °C 48.4 °F /  9.1 °C 29.7 in /  1004.3 hPa SSE 2 mph /  3.2 km/h 11 mph /  17.7 km/h 47 % 0 in /  0.0 mm
15:17 70 °F /  21.1 °C 48.2 °F /  9.0 °C 29.7 in /  1004.3 hPa SE 2 mph /  3.2 km/h 10 mph /  16.1 km/h 46 % 0 in /  0.0 mm
15:22 70.3 °F /  21.3 °C 48 °F /  8.9 °C 29.7 in /  1004.3 hPa SE 2 mph /  3.2 km/h 6 mph /  9.7 km/h 45 % 0 in /  0.0 mm
15:32 70.2 °F /  21.2 °C 51.3 °F /  10.7 °C 29.7 in /  1004.3 hPa ENE 2 mph /  3.2 km/h 7 mph /  11.3 km/h 51 % 0 in /  0.0 mm
15:42 70.2 °F /  21.2 °C 49.6 °F /  9.8 °C 29.7 in /  1004.3 hPa South 2 mph /  3.2 km/h 7 mph /  11.3 km/h 48 % 0 in /  0.0 mm
15:47 69.6 °F /  20.9 °C 49.6 °F /  9.8 °C 29.7 in /  1004.3 hPa East 2 mph /  3.2 km/h 6 mph /  9.7 km/h 49 % 0 in /  0.0 mm
15:57 69.8 °F /  21.0 °C 52 °F /  11.1 °C 29.6 in /  1003.9 hPa ENE 2 mph /  3.2 km/h 6 mph /  9.7 km/h 53 % 0 in /  0.0 mm
16:02 70 °F /  21.1 °C 52 °F /  11.1 °C 29.6 in /  1003.9 hPa East 3 mph /  4.8 km/h 6 mph /  9.7 km/h 53 % 0 in /  0.0 mm
16:07 69.8 °F /  21.0 °C 50.4 °F /  10.2 °C 29.6 in /  1003.9 hPa East 1 mph /  1.6 km/h 6 mph /  9.7 km/h 50 % 0 in /  0.0 mm
16:12 69.8 °F /  21.0 °C 50.4 °F /  10.2 °C 29.6 in /  1003.9 hPa ENE 3 mph /  4.8 km/h 6 mph /  9.7 km/h 50 % 0 in /  0.0 mm
16:17 69.4 °F /  20.8 °C 49.5 °F /  9.7 °C 29.6 in /  1003.9 hPa East 1 mph /  1.6 km/h 8 mph /  12.9 km/h 49 % 0 in /  0.0 mm
16:22 69.6 °F /  20.9 °C 49.6 °F /  9.8 °C 29.6 in /  1003.9 hPa Calm   8 mph /  12.9 km/h 49 % 0 in /  0.0 mm
16:32 70.2 °F /  21.2 °C 50.7 °F /  10.4 °C 29.6 in /  1003.9 hPa ENE 2 mph /  3.2 km/h 6 mph /  9.7 km/h 50 % 0 in /  0.0 mm
16:42 71.2 °F /  21.8 °C 52.7 °F /  11.5 °C 29.6 in /  1003.6 hPa SE 1 mph /  1.6 km/h 4 mph /  6.4 km/h 52 % 0 in /  0.0 mm
16:47 71.1 °F /  21.7 °C 51.4 °F /  10.8 °C 29.6 in /  1003.6 hPa ENE 4 mph /  6.4 km/h 7 mph /  11.3 km/h 50 % 0 in /  0.0 mm
16:52 70.5 °F /  21.4 °C 53.1 °F /  11.7 °C 29.6 in /  1003.6 hPa East 2 mph /  3.2 km/h 7 mph /  11.3 km/h 54 % 0 in /  0.0 mm
16:57 70.7 °F /  21.5 °C 52.2 °F /  11.2 °C 29.6 in /  1003.6 hPa East 1 mph /  1.6 km/h 7 mph /  11.3 km/h 52 % 0 in /  0.0 mm
17:02 71.2 °F /  21.8 °C 53.2 °F /  11.8 °C 29.6 in /  1003.6 hPa Calm   6 mph /  9.7 km/h 53 % 0 in /  0.0 mm
17:07 71.6 °F /  22.0 °C 53.1 °F /  11.7 °C 29.6 in /  1003.6 hPa ESE 3 mph /  4.8 km/h 5 mph /  8.0 km/h 52 % 0 in /  0.0 mm
17:12 71.6 °F /  22.0 °C 53.1 °F /  11.7 °C 29.6 in /  1003.6 hPa SSE 1 mph /  1.6 km/h 7 mph /  11.3 km/h 52 % 0 in /  0.0 mm
17:17 71.6 °F /  22.0 °C 52.5 °F /  11.4 °C 29.6 in /  1003.6 hPa ESE 2 mph /  3.2 km/h 7 mph /  11.3 km/h 51 % 0 in /  0.0 mm
17:22 71.4 °F /  21.9 °C 52.3 °F /  11.3 °C 29.6 in /  1003.6 hPa ESE 4 mph /  6.4 km/h 5 mph /  8.0 km/h 51 % 0 in /  0.0 mm
17:27 71.1 °F /  21.7 °C 53.6 °F /  12.0 °C 29.6 in /  1003.3 hPa East 1 mph /  1.6 km/h 5 mph /  8.0 km/h 54 % 0 in /  0.0 mm
17:32 71.2 °F /  21.8 °C 53.2 °F /  11.8 °C 29.6 in /  1003.3 hPa Calm   5 mph /  8.0 km/h 53 % 0 in /  0.0 mm
17:37 71.4 °F /  21.9 °C 51.8 °F /  11.0 °C 29.6 in /  1003.3 hPa Calm   5 mph /  8.0 km/h 50 % 0 in /  0.0 mm
17:42 71.8 °F /  22.1 °C 51.6 °F /  10.9 °C 29.6 in /  1003.3 hPa SW 1 mph /  1.6 km/h 5 mph /  8.0 km/h 49 % 0 in /  0.0 mm
17:47 72 °F /  22.2 °C 51.3 °F /  10.7 °C 29.6 in /  1003.3 hPa SW 4 mph /  6.4 km/h 5 mph /  8.0 km/h 48 % 0 in /  0.0 mm
17:52 71.8 °F /  22.1 °C 49.3 °F /  9.6 °C 29.6 in /  1003.3 hPa SE 2 mph /  3.2 km/h 6 mph /  9.7 km/h 45 % 0 in /  0.0 mm
17:57 71.8 °F /  22.1 °C 48.7 °F /  9.3 °C 29.6 in /  1003.3 hPa South 2 mph /  3.2 km/h 7 mph /  11.3 km/h 44 % 0 in /  0.0 mm
18:02 72 °F /  22.2 °C 48.2 °F /  9.0 °C 29.6 in /  1003.3 hPa South 5 mph /  8.0 km/h 7 mph /  11.3 km/h 43 % 0 in /  0.0 mm
18:12 71.6 °F /  22.0 °C 47.8 °F /  8.8 °C 29.6 in /  1003.3 hPa SE 2 mph /  3.2 km/h 6 mph /  9.7 km/h 43 % 0 in /  0.0 mm
18:17 71.4 °F /  21.9 °C 48.9 °F /  9.4 °C 29.6 in /  1002.9 hPa Calm   7 mph /  11.3 km/h 45 % 0 in /  0.0 mm
18:22 71.6 °F /  22.0 °C 47.8 °F /  8.8 °C 29.6 in /  1002.9 hPa WSW 1 mph /  1.6 km/h 7 mph /  11.3 km/h 43 % 0 in /  0.0 mm
18:27 72 °F /  22.2 °C 48.9 °F /  9.4 °C 29.6 in /  1002.9 hPa WSW 2 mph /  3.2 km/h 3 mph /  4.8 km/h 44 % 0 in /  0.0 mm
18:32 72 °F /  22.2 °C 48.2 °F /  9.0 °C 29.6 in /  1002.9 hPa West 1 mph /  1.6 km/h 3 mph /  4.8 km/h 43 % 0 in /  0.0 mm
18:37 72.5 °F /  22.5 °C 49.3 °F /  9.6 °C 29.6 in /  1002.9 hPa WSW 3 mph /  4.8 km/h 4 mph /  6.4 km/h 44 % 0 in /  0.0 mm
18:42 72.1 °F /  22.3 °C 49.1 °F /  9.5 °C 29.6 in /  1002.9 hPa SW 2 mph /  3.2 km/h 4 mph /  6.4 km/h 44 % 0 in /  0.0 mm
18:47 72.5 °F /  22.5 °C 49.3 °F /  9.6 °C 29.6 in /  1002.9 hPa Calm   4 mph /  6.4 km/h 44 % 0 in /  0.0 mm
18:52 73 °F /  22.8 °C 49.3 °F /  9.6 °C 29.6 in /  1002.9 hPa WNW 2 mph /  3.2 km/h 4 mph /  6.4 km/h 43 % 0 in /  0.0 mm
18:57 72.5 °F /  22.5 °C 48 °F /  8.9 °C 29.6 in /  1002.6 hPa SW 2 mph /  3.2 km/h 3 mph /  4.8 km/h 42 % 0 in /  0.0 mm
19:02 72.1 °F /  22.3 °C 49.6 °F /  9.8 °C 29.6 in /  1002.6 hPa Calm   3 mph /  4.8 km/h 45 % 0 in /  0.0 mm
19:07 72.1 °F /  22.3 °C 49.1 °F /  9.5 °C 29.6 in /  1002.6 hPa Calm   3 mph /  4.8 km/h 44 % 0 in /  0.0 mm
19:12 71.8 °F /  22.1 °C 49.3 °F /  9.6 °C 29.6 in /  1002.6 hPa Calm   2 mph /  3.2 km/h 45 % 0 in /  0.0 mm
19:17 71.1 °F /  21.7 °C 49.3 °F /  9.6 °C 29.6 in /  1002.6 hPa Calm     46 % 0 in /  0.0 mm
19:22 71.1 °F /  21.7 °C 48 °F /  8.9 °C 29.6 in /  1002.3 hPa Calm     44 % 0 in /  0.0 mm
19:27 70.9 °F /  21.6 °C 48.6 °F /  9.2 °C 29.6 in /  1002.3 hPa Calm     45 % 0 in /  0.0 mm
19:37 70.2 °F /  21.2 °C 49.6 °F /  9.8 °C 29.6 in /  1002.3 hPa Calm     48 % 0 in /  0.0 mm
19:42 70 °F /  21.1 °C 50.5 °F /  10.3 °C 29.6 in /  1002.3 hPa Calm     50 % 0 in /  0.0 mm
19:47 69.8 °F /  21.0 °C 49.3 °F /  9.6 °C 29.6 in /  1002.3 hPa Calm     48 % 0 in /  0.0 mm
19:52 70 °F /  21.1 °C 48.7 °F /  9.3 °C 29.6 in /  1002.3 hPa Calm     47 % 0 in /  0.0 mm
19:57 69.6 °F /  20.9 °C 49.6 °F /  9.8 °C 29.6 in /  1002.3 hPa Calm     49 % 0 in /  0.0 mm
20:02 69.3 °F /  20.7 °C 48.7 °F /  9.3 °C 29.6 in /  1002.3 hPa Calm     48 % 0 in /  0.0 mm
20:07 69.1 °F /  20.6 °C 49.1 °F /  9.5 °C 29.6 in /  1002.3 hPa Calm     49 % 0 in /  0.0 mm
20:12 68.9 °F /  20.5 °C 48.4 °F /  9.1 °C 29.6 in /  1002.3 hPa Calm     48 % 0 in /  0.0 mm
20:17 68.7 °F /  20.4 °C 49.3 °F /  9.6 °C 29.6 in /  1002.3 hPa Calm     50 % 0 in /  0.0 mm
20:22 68.9 °F /  20.5 °C 50.5 °F /  10.3 °C 29.6 in /  1002.3 hPa Calm     52 % 0 in /  0.0 mm
20:27 69.3 °F /  20.7 °C 50.9 °F /  10.5 °C 29.6 in /  1002.3 hPa Calm     52 % 0 in /  0.0 mm
20:32 69.3 °F /  20.7 °C 49.3 °F /  9.6 °C 29.6 in /  1001.9 hPa Calm     49 % 0 in /  0.0 mm
20:37 68.5 °F /  20.3 °C 51.8 °F /  11.0 °C 29.6 in /  1001.9 hPa Calm     55 % 0 in /  0.0 mm
20:47 66.7 °F /  19.3 °C 54.1 °F /  12.3 °C 29.6 in /  1002.3 hPa SSE 4 mph /  6.4 km/h 4 mph /  6.4 km/h 64 % 0 in /  0.0 mm
20:52 65.8 °F /  18.8 °C 53.8 °F /  12.1 °C 29.6 in /  1002.3 hPa East 3 mph /  4.8 km/h 4 mph /  6.4 km/h 65 % 0 in /  0.0 mm
20:57 65.1 °F /  18.4 °C 52.7 °F /  11.5 °C 29.6 in /  1002.3 hPa East 3 mph /  4.8 km/h 7 mph /  11.3 km/h 64 % 0 in /  0.0 mm
21:02 64.6 °F /  18.1 °C 52.9 °F /  11.6 °C 29.6 in /  1002.3 hPa ENE 6 mph /  9.7 km/h 7 mph /  11.3 km/h 66 % 0 in /  0.0 mm
21:07 63.9 °F /  17.7 °C 53.4 °F /  11.9 °C 29.6 in /  1002.3 hPa NE 2 mph /  3.2 km/h 7 mph /  11.3 km/h 69 % 0 in /  0.0 mm
21:12 63.1 °F /  17.3 °C 54 °F /  12.2 °C 29.6 in /  1002.3 hPa NE 3 mph /  4.8 km/h 6 mph /  9.7 km/h 72 % 0 in /  0.0 mm
21:17 62.4 °F /  16.9 °C 54.3 °F /  12.4 °C 29.6 in /  1002.3 hPa ENE 3 mph /  4.8 km/h 6 mph /  9.7 km/h 75 % 0 in /  0.0 mm
21:22 62.2 °F /  16.8 °C 54.1 °F /  12.3 °C 29.6 in /  1002.3 hPa ENE 1 mph /  1.6 km/h 6 mph /  9.7 km/h 75 % 0 in /  0.0 mm
21:27 62.1 °F /  16.7 °C 54.3 °F /  12.4 °C 29.6 in /  1002.3 hPa ENE 1 mph /  1.6 km/h 6 mph /  9.7 km/h 76 % 0 in /  0.0 mm
21:32 62.2 °F /  16.8 °C 53.8 °F /  12.1 °C 29.6 in /  1002.6 hPa SSW 2 mph /  3.2 km/h 12 mph /  19.3 km/h 74 % 0 in /  0.0 mm
21:37 63.9 °F /  17.7 °C 52.7 °F /  11.5 °C 29.6 in /  1002.6 hPa SW 7 mph /  11.3 km/h 12 mph /  19.3 km/h 67 % 0 in /  0.0 mm
21:42 63.9 °F /  17.7 °C 53.1 °F /  11.7 °C 29.6 in /  1002.6 hPa West 2 mph /  3.2 km/h 12 mph /  19.3 km/h 68 % 0 in /  0.0 mm
21:47 63.7 °F /  17.6 °C 53.8 °F /  12.1 °C 29.6 in /  1002.6 hPa West 3 mph /  4.8 km/h 9 mph /  14.5 km/h 70 % 0 in /  0.0 mm
21:52 63.3 °F /  17.4 °C 53.8 °F /  12.1 °C 29.6 in /  1002.6 hPa West 3 mph /  4.8 km/h 7 mph /  11.3 km/h 71 % 0 in /  0.0 mm
21:57 63.1 °F /  17.3 °C 54 °F /  12.2 °C 29.6 in /  1002.6 hPa West 2 mph /  3.2 km/h 6 mph /  9.7 km/h 72 % 0 in /  0.0 mm
22:02 63 °F /  17.2 °C 53.8 °F /  12.1 °C 29.6 in /  1002.6 hPa West 1 mph /  1.6 km/h 4 mph /  6.4 km/h 72 % 0 in /  0.0 mm
22:07 62.6 °F /  17.0 °C 53.8 °F /  12.1 °C 29.6 in /  1002.6 hPa West 2 mph /  3.2 km/h 4 mph /  6.4 km/h 73 % 0 in /  0.0 mm
22:12 62.4 °F /  16.9 °C 54 °F /  12.2 °C 29.6 in /  1002.6 hPa West 2 mph /  3.2 km/h 5 mph /  8.0 km/h 74 % 0 in /  0.0 mm
22:17 62.2 °F /  16.8 °C 53.8 °F /  12.1 °C 29.6 in /  1002.6 hPa WSW 2 mph /  3.2 km/h 5 mph /  8.0 km/h 74 % 0 in /  0.0 mm
22:22 62.1 °F /  16.7 °C 53.6 °F /  12.0 °C 29.6 in /  1002.6 hPa WSW 1 mph /  1.6 km/h 5 mph /  8.0 km/h 74 % 0 in /  0.0 mm
22:27 62.1 °F /  16.7 °C 53.6 °F /  12.0 °C 29.6 in /  1002.6 hPa WSW 2 mph /  3.2 km/h 5 mph /  8.0 km/h 74 % 0 in /  0.0 mm
22:32 61.9 °F /  16.6 °C 53.4 °F /  11.9 °C 29.6 in /  1002.6 hPa Calm   3 mph /  4.8 km/h 74 % 0 in /  0.0 mm
22:37 61.9 °F /  16.6 °C 53.4 °F /  11.9 °C 29.6 in /  1002.6 hPa West 1 mph /  1.6 km/h 3 mph /  4.8 km/h 74 % 0 in /  0.0 mm
22:42 61.9 °F /  16.6 °C 53.4 °F /  11.9 °C 29.6 in /  1002.6 hPa Calm   2 mph /  3.2 km/h 74 % 0 in /  0.0 mm
22:47 61.7 °F /  16.5 °C 53.2 °F /  11.8 °C 29.6 in /  1002.6 hPa Calm   1 mph /  1.6 km/h 74 % 0 in /  0.0 mm
22:52 61.5 °F /  16.4 °C 53.2 °F /  11.8 °C 29.6 in /  1002.6 hPa Calm   1 mph /  1.6 km/h 74 % 0 in /  0.0 mm
22:57 61.3 °F /  16.3 °C 53.4 °F /  11.9 °C 29.6 in /  1002.6 hPa Calm   1 mph /  1.6 km/h 75 % 0 in /  0.0 mm
23:02 61.2 °F /  16.2 °C 53.6 °F /  12.0 °C 29.6 in /  1002.6 hPa Calm   1 mph /  1.6 km/h 76 % 0 in /  0.0 mm
23:07 60.6 °F /  15.9 °C 53.8 °F /  12.1 °C 29.6 in /  1002.6 hPa Calm   2 mph /  3.2 km/h 78 % 0 in /  0.0 mm
23:12 60.1 °F /  15.6 °C 54 °F /  12.2 °C 29.6 in /  1002.6 hPa Calm   2 mph /  3.2 km/h 80 % 0 in /  0.0 mm
23:17 59.4 °F /  15.2 °C 53.6 °F /  12.0 °C 29.6 in /  1002.6 hPa Calm   2 mph /  3.2 km/h 81 % 0 in /  0.0 mm
23:22 59 °F /  15.0 °C 53.8 °F /  12.1 °C 29.6 in /  1002.6 hPa Calm   2 mph /  3.2 km/h 83 % 0 in /  0.0 mm
23:32 57.9 °F /  14.4 °C 53.1 °F /  11.7 °C 29.6 in /  1002.6 hPa Calm   2 mph /  3.2 km/h 84 % 0 in /  0.0 mm
23:37 57.7 °F /  14.3 °C 53.2 °F /  11.8 °C 29.6 in /  1002.6 hPa Calm   2 mph /  3.2 km/h 85 % 0 in /  0.0 mm
23:42 57.6 °F /  14.2 °C 53.1 °F /  11.7 °C 29.6 in /  1002.6 hPa Calm   2 mph /  3.2 km/h 85 % 0 in /  0.0 mm
23:47 57.2 °F /  14.0 °C 53.1 °F /  11.7 °C 29.6 in /  1002.6 hPa Calm   1 mph /  1.6 km/h 86 % 0 in /  0.0 mm
23:52 57 °F /  13.9 °C 53.2 °F /  11.8 °C 29.6 in /  1002.6 hPa Calm   1 mph /  1.6 km/h 87 % 0 in /  0.0 mm
23:57 56.8 °F /  13.8 °C 53.1 °F /  11.7 °C 29.6 in /  1002.6 hPa Calm   1 mph /  1.6 km/h 87 % 0 in /  0.0 mm
Meteo18
Compliments of Weather Underground - 4 mb

Script developed by  Jim McMurry - jmcmurry@mwt.net Adapted for the template by  Wim van der Kuil - Leuven-Template.eu

You find our weather info also at:

European Weather Network

Weather Underground

Equipment we use:

Weather-station
Davis Vue

Weather-program
Meteohub

Weather-server
Raspberry PI 2 B+

Provider
1 and 1

Davis Vue

Meteohub

Raspberry PI 2 B+

1 and 1